Time;durP1;ratioP1;P1;durP2;ratioP2;P2;SDS_P1;SDS_P2;PMS_P1;PMS_P2;Temp;Humidity;BMP_temperature;BMP_pressure;BME280_temperature;BME280_humidity;BME280_pressure;Samples;Min_cycle;Max_cycle;Signal;HPM_P1;HPM_P2
2021/05/03 00:01:05;;;;;;;2.72;1.48;;;5.80;88.70;;;;;;5071238;28;20031;-80
2021/05/03 00:03:31;;;;;;;2.20;1.20;;;5.80;88.80;;;;;;5052162;28;20021;-80
2021/05/03 00:05:56;;;;;;;2.42;1.33;;;5.80;88.90;;;;;;5054409;28;20119;-80
2021/05/03 00:08:26;;;;;;;2.08;1.23;;;5.70;88.90;;;;;;5054610;28;20107;-80
2021/05/03 00:10:52;;;;;;;3.03;1.33;;;5.70;89.00;;;;;;5055009;28;20107;-80
2021/05/03 00:13:18;;;;;;;3.28;1.50;;;5.70;89.60;;;;;;5053689;28;20115;-80
2021/05/03 00:15:43;;;;;;;2.50;1.55;;;5.70;89.00;;;;;;5070502;28;20021;-80
2021/05/03 00:18:09;;;;;;;2.47;1.58;;;5.70;89.00;;;;;;5054249;28;20464;-80
2021/05/03 00:20:35;;;;;;;2.20;1.50;;;5.70;89.00;;;;;;5054789;28;20028;-81
2021/05/03 00:23:01;;;;;;;4.63;2.47;;;5.60;89.50;;;;;;5077582;28;20041;-80
2021/05/03 00:25:26;;;;;;;4.82;3.10;;;5.40;90.50;;;;;;5089749;28;20019;-80
2021/05/03 00:27:52;;;;;;;3.67;2.20;;;5.30;91.30;;;;;;5088002;28;20468;-81
2021/05/03 00:30:18;;;;;;;2.38;1.70;;;5.30;91.40;;;;;;5089971;28;20467;-80
2021/05/03 00:32:44;;;;;;;1.70;1.10;;;5.20;91.40;;;;;;5090025;28;20064;-80
2021/05/03 00:35:11;;;;;;;2.47;1.30;;;5.20;91.40;;;;;;5090745;28;20023;-80
2021/05/03 00:37:36;;;;;;;1.70;1.10;;;5.20;91.40;;;;;;5091483;28;20020;-80
2021/05/03 00:40:03;;;;;;;2.28;1.25;;;5.20;91.30;;;;;;5088748;28;20077;-80
2021/05/03 00:42:29;;;;;;;2.80;1.70;;;5.20;91.30;;;;;;5089328;28;20027;-80
2021/05/03 00:44:54;;;;;;;2.78;1.90;;;5.30;91.60;;;;;;5087257;28;20021;-80
2021/05/03 00:47:20;;;;;;;3.33;1.65;;;5.30;91.40;;;;;;5090067;28;20020;-80
2021/05/03 00:49:46;;;;;;;3.40;1.90;;;5.30;91.40;;;;;;5089375;28;20028;-80
2021/05/03 00:52:12;;;;;;;3.10;2.30;;;5.30;91.50;;;;;;5091248;28;20456;-80
2021/05/03 00:54:39;;;;;;;3.17;2.45;;;5.30;91.40;;;;;;5088402;28;20388;-80
2021/05/03 00:57:06;;;;;;;4.82;3.58;;;5.20;91.50;;;;;;5088676;28;20028;-80
2021/05/03 00:59:31;;;;;;;6.90;4.20;;;5.10;92.00;;;;;;5088301;28;20024;-80
2021/05/03 01:01:57;;;;;;;4.57;3.50;;;5.00;92.80;;;;;;5085089;28;20021;-80
2021/05/03 01:04:22;;;;;;;7.35;4.50;;;5.00;93.40;;;;;;5091194;28;20020;-81
2021/05/03 01:06:48;;;;;;;4.45;3.60;;;4.90;93.90;;;;;;5088867;28;20020;-80
2021/05/03 01:09:14;;;;;;;5.43;4.18;;;5.00;93.90;;;;;;5091981;28;20031;-80
2021/05/03 01:11:39;;;;;;;4.68;3.38;;;5.00;93.90;;;;;;5090341;28;20383;-80
2021/05/03 01:14:05;;;;;;;6.30;3.33;;;5.10;93.70;;;;;;5087966;28;20464;-80
2021/05/03 01:16:30;;;;;;;5.03;2.50;;;5.20;93.50;;;;;;5089171;28;20016;-80
2021/05/03 01:18:56;;;;;;;3.97;2.78;;;5.20;93.30;;;;;;5090204;28;20067;-80
2021/05/03 01:21:26;;;;;;;3.38;2.08;;;5.30;93.50;;;;;;5090249;28;20455;-80
2021/05/03 01:23:51;;;;;;;3.33;2.42;;;5.30;93.10;;;;;;5051410;28;20024;-80
2021/05/03 01:26:17;;;;;;;3.00;2.15;;;5.30;93.00;;;;;;5049466;28;20052;-80
2021/05/03 01:28:43;;;;;;;3.80;2.63;;;5.30;93.00;;;;;;5070161;28;20468;-80
2021/05/03 01:31:08;;;;;;;5.47;4.30;;;5.30;93.00;;;;;;5045620;28;20094;-80
2021/05/03 01:33:34;;;;;;;6.93;5.15;;;5.20;93.70;;;;;;5070894;28;20482;-80
2021/05/03 01:35:59;;;;;;;7.43;4.95;;;5.00;94.10;;;;;;5053220;28;20472;-80
2021/05/03 01:38:25;;;;;;;5.55;4.70;;;5.00;94.30;;;;;;5053217;28;20116;-81
2021/05/03 01:40:51;;;;;;;6.10;4.47;;;4.80;94.70;;;;;;5053173;28;20020;-81
2021/05/03 01:43:20;;;;;;;9.43;5.22;;;4.60;95.30;;;;;;5067135;28;20045;-81
2021/05/03 01:45:47;;;;;;;7.50;4.50;;;4.60;95.80;;;;;;5052081;28;20036;-81
2021/05/03 01:48:16;;;;;;;7.07;5.63;;;4.50;96.30;;;;;;5050688;28;20020;-81
2021/05/03 01:50:43;;;;;;;6.82;5.22;;;4.50;96.70;;;;;;5052785;28;20134;-81
2021/05/03 01:53:09;;;;;;;6.07;4.32;;;4.40;96.90;;;;;;5052453;28;20042;-81
2021/05/03 01:55:35;;;;;;;6.78;4.78;;;4.30;96.90;;;;;;5068910;28;20024;-81
2021/05/03 01:58:02;;;;;;;9.13;5.78;;;4.30;97.00;;;;;;5071875;28;20017;-81
2021/05/03 02:00:28;;;;;;;8.10;5.75;;;4.30;97.20;;;;;;5048992;28;20032;-81
2021/05/03 02:02:53;;;;;;;7.93;5.80;;;4.20;97.70;;;;;;5046599;28;20013;-81
2021/05/03 02:05:21;;;;;;;9.35;6.10;;;4.10;98.20;;;;;;5050592;28;20041;-81
2021/05/03 02:07:58;;;;;;;10.25;5.95;;;4.10;98.70;;;;;;5052746;28;20120;-81
2021/05/03 02:10:24;;;;;;;10.45;6.35;;;4.00;98.70;;;;;;5052260;28;20103;-81
2021/05/03 02:12:49;;;;;;;8.48;5.57;;;4.00;98.70;;;;;;5069497;28;20456;-81
2021/05/03 02:15:15;;;;;;;7.72;6.05;;;4.00;98.70;;;;;;5065302;28;20060;-81
2021/05/03 02:17:41;;;;;;;9.38;5.85;;;4.00;98.90;;;;;;5051563;28;20365;-81
2021/05/03 02:20:07;;;;;;;7.47;5.50;;;3.90;99.20;;;;;;5052886;28;20661;-81
2021/05/03 02:22:33;;;;;;;7.70;5.57;;;3.90;99.10;;;;;;5049821;28;20139;-80
2021/05/03 02:24:58;;;;;;;8.27;5.30;;;3.90;99.20;;;;;;5087761;28;20598;-81
2021/05/03 02:27:24;;;;;;;9.10;6.30;;;3.80;99.30;;;;;;5088357;28;20094;-81
2021/05/03 02:29:49;;;;;;;8.63;6.35;;;3.80;99.60;;;;;;5087771;28;20016;-80
2021/05/03 02:32:15;;;;;;;8.77;5.57;;;3.80;99.60;;;;;;5090406;28;20024;-81
2021/05/03 02:34:41;;;;;;;6.72;4.90;;;3.80;99.60;;;;;;5088212;28;20468;-80
2021/05/03 02:37:07;;;;;;;5.80;4.70;;;3.90;99.50;;;;;;5089780;28;20020;-80
2021/05/03 02:39:33;;;;;;;7.97;5.53;;;3.90;99.30;;;;;;5089644;28;20103;-81
2021/05/03 02:41:58;;;;;;;7.55;5.88;;;4.00;99.20;;;;;;5087635;28;20016;-81
2021/05/03 02:44:24;;;;;;;11.18;6.47;;;3.90;99.30;;;;;;5088063;28;20016;-81
2021/05/03 02:46:49;;;;;;;9.63;6.47;;;3.80;99.70;;;;;;5086275;28;20027;-81
2021/05/03 02:49:15;;;;;;;10.07;6.03;;;3.80;99.90;;;;;;5088725;28;20012;-81
2021/05/03 02:51:41;;;;;;;9.85;6.53;;;3.80;99.80;;;;;;5089633;28;20032;-81
2021/05/03 02:54:08;;;;;;;8.95;5.68;;;3.80;99.70;;;;;;5093305;28;20069;-81
2021/05/03 02:56:34;;;;;;;8.50;5.40;;;3.80;99.60;;;;;;5094662;28;20027;-81
2021/05/03 02:58:59;;;;;;;10.75;6.95;;;3.80;99.50;;;;;;5088664;28;20107;-82
2021/05/03 03:01:25;;;;;;;11.23;7.07;;;3.80;99.50;;;;;;5086015;28;20419;-81
2021/05/03 03:03:50;;;;;;;11.02;6.85;;;3.80;99.80;;;;;;5091087;28;20062;-82
2021/05/03 03:06:16;;;;;;;9.07;6.50;;;3.70;99.90;;;;;;5091997;28;20020;-82
2021/05/03 03:08:41;;;;;;;10.93;6.75;;;3.70;99.90;;;;;;5091325;28;20031;-81
2021/05/03 03:11:07;;;;;;;8.32;6.07;;;3.70;99.90;;;;;;5094259;28;20024;-81
2021/05/03 03:13:32;;;;;;;8.05;6.30;;;3.60;99.90;;;;;;5091243;28;20467;-81
2021/05/03 03:15:58;;;;;;;8.60;6.50;;;3.60;99.90;;;;;;5089736;28;20410;-82
2021/05/03 03:18:24;;;;;;;8.20;6.68;;;3.60;99.90;;;;;;5093913;28;20035;-82
2021/05/03 03:20:49;;;;;;;11.60;6.75;;;3.60;99.90;;;;;;5093137;28;20055;-81
2021/05/03 03:23:15;;;;;;;13.00;7.18;;;3.60;99.90;;;;;;5093065;28;20040;-81
2021/05/03 03:25:40;;;;;;;9.80;6.63;;;3.60;99.90;;;;;;5091952;28;20383;-81
2021/05/03 03:28:07;;;;;;;10.32;6.53;;;3.60;99.90;;;;;;5090029;28;20369;-81
2021/05/03 03:30:33;;;;;;;11.50;6.53;;;3.60;99.90;;;;;;5085903;28;20078;-82
2021/05/03 03:32:59;;;;;;;11.57;6.68;;;3.60;99.90;;;;;;5090279;28;20450;-82
2021/05/03 03:35:25;;;;;;;10.60;7.03;;;3.70;99.90;;;;;;5092003;28;20020;-81
2021/05/03 03:37:52;;;;;;;11.38;7.82;;;3.70;99.90;;;;;;5091678;28;20051;-82
2021/05/03 03:40:18;;;;;;;9.57;6.80;;;3.60;99.90;;;;;;5094174;28;20055;-82
2021/05/03 03:42:44;;;;;;;9.95;6.95;;;3.60;99.90;;;;;;5091742;28;20494;-82
2021/05/03 03:45:12;;;;;;;9.35;7.30;;;3.60;99.90;;;;;;5089535;28;20031;-82
2021/05/03 03:47:37;;;;;;;15.95;7.32;;;3.60;99.90;;;;;;5091192;28;20103;-82
2021/05/03 03:50:04;;;;;;;15.95;8.73;;;3.50;99.90;;;;;;5089803;28;20462;-82
2021/05/03 03:52:30;;;;;;;13.82;8.93;;;3.50;99.90;;;;;;5091686;28;20479;-81
2021/05/03 03:54:55;;;;;;;13.20;8.80;;;3.40;99.90;;;;;;5091476;28;20081;-82
2021/05/03 03:57:21;;;;;;;13.75;9.25;;;3.40;99.90;;;;;;5092565;28;20020;-82
2021/05/03 03:59:51;;;;;;;16.35;9.48;;;3.30;99.90;;;;;;5090027;28;20032;-81
2021/05/03 04:02:17;;;;;;;14.60;10.45;;;3.40;99.90;;;;;;5085886;28;20467;-82
2021/05/03 04:04:45;;;;;;;18.02;10.77;;;3.40;99.90;;;;;;5090122;28;20104;-82
2021/05/03 04:12:37;;;;;;;16.08;9.68;;;3.50;99.90;;;;;;5091937;28;20100;-82
2021/05/03 04:25:47;;;;;;;13.55;10.13;;;3.60;99.90;;;;;;5070647;28;20021;-82
2021/05/03 04:28:12;;;;;;;12.85;9.05;;;3.70;99.90;;;;;;5050537;28;20417;-82
2021/05/03 04:30:38;;;;;;;14.20;10.02;;;3.70;99.90;;;;;;5053344;28;20162;-82
2021/05/03 04:33:04;;;;;;;13.77;9.55;;;3.70;99.90;;;;;;5052320;28;20154;-82
2021/05/03 04:35:29;;;;;;;15.68;9.82;;;3.70;99.90;;;;;;5072139;28;20105;-82
2021/05/03 04:37:55;;;;;;;12.68;9.82;;;3.70;99.90;;;;;;5050338;28;20036;-81
2021/05/03 04:40:21;;;;;;;12.65;9.18;;;3.80;99.90;;;;;;5054510;28;20025;-82
2021/05/03 04:42:46;;;;;;;13.77;10.38;;;3.80;99.90;;;;;;5070145;28;20066;-81
2021/05/03 04:45:14;;;;;;;14.35;9.80;;;3.80;99.90;;;;;;5068042;28;20028;-82
2021/05/03 04:47:40;;;;;;;16.58;10.68;;;3.80;99.90;;;;;;5052812;28;20013;-82
2021/05/03 04:50:07;;;;;;;17.85;9.88;;;3.90;99.90;;;;;;5051770;28;20469;-81
2021/05/03 04:52:34;;;;;;;16.88;10.05;;;3.90;99.90;;;;;;5053345;28;20020;-82
2021/05/03 04:55:00;;;;;;;14.23;10.02;;;4.00;99.90;;;;;;5053061;28;20070;-80
2021/05/03 04:57:26;;;;;;;15.43;9.88;;;4.10;99.90;;;;;;5054372;28;20028;-81
2021/05/03 04:59:52;;;;;;;14.32;9.13;;;4.00;99.90;;;;;;5054381;28;20499;-81
2021/05/03 05:02:17;;;;;;;12.60;9.50;;;4.10;99.90;;;;;;5050055;28;20090;-82
2021/05/03 05:04:43;;;;;;;12.73;9.23;;;4.10;99.90;;;;;;5052667;28;20040;-82
2021/05/03 05:07:08;;;;;;;13.02;9.77;;;4.10;99.90;;;;;;5051187;28;20473;-82
2021/05/03 05:09:34;;;;;;;14.55;9.88;;;4.10;99.90;;;;;;5053181;28;20027;-81
2021/05/03 05:11:59;;;;;;;12.60;9.30;;;4.10;99.90;;;;;;5068130;28;20024;-82
2021/05/03 05:14:25;;;;;;;11.77;9.18;;;4.10;99.90;;;;;;5050911;28;20024;-82
2021/05/03 05:16:51;;;;;;;13.32;9.57;;;4.10;99.90;;;;;;5050811;28;20024;-82
2021/05/03 05:19:16;;;;;;;13.85;9.65;;;4.20;99.90;;;;;;5051349;28;20056;-82
2021/05/03 05:21:42;;;;;;;14.27;9.57;;;4.20;99.90;;;;;;5035682;28;20164;-81
2021/05/03 05:24:08;;;;;;;12.70;8.88;;;4.20;99.90;;;;;;5070439;28;20119;-81
2021/05/03 05:26:34;;;;;;;14.43;9.13;;;4.20;99.90;;;;;;5068971;28;20027;-80
2021/05/03 05:28:59;;;;;;;13.95;10.07;;;4.20;99.90;;;;;;5072585;28;20029;-81
2021/05/03 05:31:25;;;;;;;12.27;9.60;;;4.30;99.90;;;;;;5071596;28;20123;-81
2021/05/03 05:33:51;;;;;;;12.18;9.27;;;4.40;99.90;;;;;;5071552;28;20107;-81
2021/05/03 05:36:16;;;;;;;15.30;9.55;;;4.40;99.90;;;;;;5073037;28;20391;-80
2021/05/03 05:38:42;;;;;;;14.38;10.23;;;4.50;99.90;;;;;;5072684;28;20029;-81
2021/05/03 05:41:09;;;;;;;16.77;9.73;;;4.60;99.90;;;;;;5071737;28;20398;-81
2021/05/03 05:43:35;;;;;;;15.68;10.63;;;4.60;99.90;;;;;;5071589;28;20484;-81
2021/05/03 05:46:00;;;;;;;15.93;9.90;;;4.70;99.90;;;;;;5071630;28;20031;-82
2021/05/03 05:48:26;;;;;;;13.95;9.77;;;4.70;99.90;;;;;;5071636;28;20066;-81
2021/05/03 05:50:51;;;;;;;13.85;9.77;;;4.80;99.90;;;;;;5071417;28;20060;-81
2021/05/03 05:53:17;;;;;;;15.10;10.02;;;4.90;99.90;;;;;;5073061;28;20029;-81
2021/05/03 05:55:43;;;;;;;13.02;9.10;;;4.90;99.90;;;;;;5071400;28;20455;-81
2021/05/03 05:58:08;;;;;;;15.00;9.38;;;4.90;99.90;;;;;;5062576;28;20087;-81
2021/05/03 06:00:34;;;;;;;17.80;9.50;;;5.00;99.90;;;;;;5068603;28;20115;-81
2021/05/03 06:03:01;;;;;;;15.32;8.98;;;5.00;99.90;;;;;;5072710;28;20108;-81
2021/05/03 06:05:26;;;;;;;16.77;10.43;;;5.10;99.90;;;;;;5072863;28;20028;-81
2021/05/03 06:07:52;;;;;;;13.52;8.98;;;5.10;99.90;;;;;;5071297;28;20016;-81
2021/05/03 06:10:17;;;;;;;14.40;8.93;;;5.10;99.90;;;;;;5068877;28;20372;-82
2021/05/03 06:12:43;;;;;;;13.77;8.95;;;5.20;99.90;;;;;;5061739;28;20029;-82
2021/05/03 06:15:09;;;;;;;12.23;8.77;;;5.30;99.90;;;;;;5069343;28;20029;-80
2021/05/03 06:17:35;;;;;;;11.88;8.52;;;5.30;99.90;;;;;;5052561;28;20040;-81
2021/05/03 06:20:00;;;;;;;12.30;8.80;;;5.30;99.90;;;;;;5051261;28;20021;-81
2021/05/03 06:22:28;;;;;;;11.35;8.10;;;5.40;99.90;;;;;;5050795;28;20044;-81
2021/05/03 06:24:55;;;;;;;11.68;8.13;;;5.40;99.90;;;;;;5050994;28;20485;-81
2021/05/03 06:27:20;;;;;;;15.80;8.55;;;5.50;99.90;;;;;;5053697;28;20032;-80
2021/05/03 06:29:46;;;;;;;12.55;8.70;;;5.60;99.90;;;;;;5054888;28;20028;-82
2021/05/03 06:32:12;;;;;;;10.77;8.20;;;5.70;99.90;;;;;;5055163;28;20025;-81
2021/05/03 06:34:38;;;;;;;13.45;8.45;;;5.80;99.50;;;;;;5056258;28;20043;-82
2021/05/03 06:37:03;;;;;;;11.35;7.85;;;5.90;99.10;;;;;;5055048;28;20094;-82
2021/05/03 06:39:29;;;;;;;13.18;7.47;;;6.00;98.40;;;;;;5055261;28;20067;-81
2021/05/03 06:41:54;;;;;;;9.68;6.75;;;6.10;98.00;;;;;;5060989;28;20538;-81
2021/05/03 06:44:20;;;;;;;11.35;6.60;;;6.20;97.20;;;;;;5065760;28;20035;-82
2021/05/03 06:46:46;;;;;;;9.40;6.60;;;6.30;96.70;;;;;;5065028;28;20112;-82
2021/05/03 06:49:11;;;;;;;7.72;6.25;;;6.40;95.70;;;;;;5063299;28;20017;-81
2021/05/03 06:51:37;;;;;;;12.50;6.63;;;6.50;95.40;;;;;;5057956;28;20515;-81
2021/05/03 06:54:03;;;;;;;9.20;6.10;;;6.60;95.00;;;;;;5054563;28;20018;-81
2021/05/03 06:56:28;;;;;;;10.38;5.80;;;6.70;94.60;;;;;;5058353;28;20029;-82
2021/05/03 06:58:54;;;;;;;9.52;5.63;;;6.70;94.20;;;;;;5061579;28;20093;-82
2021/05/03 07:01:21;;;;;;;9.30;5.15;;;6.80;93.90;;;;;;5053236;28;20029;-83
2021/05/03 07:03:47;;;;;;;6.72;4.90;;;6.90;93.30;;;;;;5063966;28;20108;-82
2021/05/03 07:06:12;;;;;;;9.13;5.70;;;7.00;92.40;;;;;;5073739;28;20098;-82
2021/05/03 07:08:39;;;;;;;8.18;5.70;;;7.10;92.20;;;;;;5070140;28;20044;-83
2021/05/03 07:11:09;;;;;;;8.98;5.93;;;7.30;91.70;;;;;;5072774;28;20078;-81
2021/05/03 07:13:36;;;;;;;8.55;6.15;;;7.50;92.00;;;;;;5072026;28;20035;-83
2021/05/03 07:16:01;;;;;;;8.35;6.00;;;7.70;91.80;;;;;;5065630;28;20021;-82
2021/05/03 07:18:27;;;;;;;8.85;6.10;;;7.80;91.30;;;;;;5053991;28;20504;-82
2021/05/03 07:20:53;;;;;;;11.05;6.82;;;7.90;91.20;;;;;;5053709;28;20033;-82
2021/05/03 07:23:18;;;;;;;14.65;9.60;;;8.10;91.20;;;;;;5028133;28;20045;-83
2021/05/03 07:25:44;;;;;;;14.82;10.88;;;8.20;90.60;;;;;;5034384;28;20064;-82
2021/05/03 07:28:09;;;;;;;15.48;11.27;;;8.20;90.20;;;;;;5042016;28;20033;-81
2021/05/03 07:30:35;;;;;;;20.52;11.75;;;8.30;90.40;;;;;;5034179;28;20056;-81
2021/05/03 07:33:00;;;;;;;17.45;12.20;;;8.40;90.80;;;;;;5036472;28;20032;-82
2021/05/03 07:35:26;;;;;;;16.85;12.65;;;8.50;90.80;;;;;;5054934;28;20021;-80
2021/05/03 07:37:52;;;;;;;20.13;13.93;;;8.70;90.90;;;;;;5036714;28;20024;-81
2021/05/03 07:40:17;;;;;;;21.67;15.20;;;8.80;90.20;;;;;;5036148;28;20396;-81
2021/05/03 07:42:44;;;;;;;18.13;14.48;;;8.80;90.10;;;;;;5037187;28;20409;-81
2021/05/03 07:45:13;;;;;;;16.77;13.38;;;8.80;90.90;;;;;;5054971;28;20025;-82
2021/05/03 07:47:38;;;;;;;19.23;15.00;;;8.90;90.00;;;;;;5054732;28;20365;-82
2021/05/03 07:50:04;;;;;;;17.35;14.93;;;9.00;88.70;;;;;;5036715;28;20032;-81
2021/05/03 07:52:31;;;;;;;19.98;14.32;;;9.10;88.90;;;;;;5036861;28;20035;-81
2021/05/03 07:54:58;;;;;;;18.90;13.25;;;9.10;88.30;;;;;;5036596;28;20463;-82
2021/05/03 07:57:24;;;;;;;17.65;14.55;;;9.20;88.00;;;;;;5054667;28;20021;-81
2021/05/03 07:59:49;;;;;;;19.90;13.85;;;9.20;88.30;;;;;;5054235;28;20040;-82
2021/05/03 08:02:15;;;;;;;17.73;13.45;;;9.30;89.00;;;;;;5036462;28;20021;-81
2021/05/03 08:04:41;;;;;;;16.67;13.18;;;9.40;89.20;;;;;;5036155;28;20044;-81
2021/05/03 08:07:06;;;;;;;21.42;14.77;;;9.50;88.00;;;;;;5036480;28;20381;-81
2021/05/03 08:09:32;;;;;;;17.23;13.57;;;9.60;87.10;;;;;;5054243;28;20040;-82
2021/05/03 08:11:57;;;;;;;16.55;13.65;;;9.60;86.30;;;;;;5036368;28;20499;-81
2021/05/03 08:14:23;;;;;;;20.65;14.80;;;9.60;87.10;;;;;;5036322;28;20488;-82
2021/05/03 08:16:58;;;;;;;20.35;15.10;;;9.70;88.10;;;;;;5021891;28;20116;-83
2021/05/03 08:19:24;;;;;;;18.95;14.00;;;9.80;86.60;;;;;;5016442;28;20443;-81
2021/05/03 08:21:50;;;;;;;18.17;13.98;;;9.90;87.50;;;;;;5016221;28;20461;-82
2021/05/03 08:24:15;;;;;;;20.58;14.32;;;10.00;87.50;;;;;;5053211;28;20408;-83
2021/05/03 08:26:41;;;;;;;19.38;13.90;;;10.20;86.40;;;;;;5035076;28;20116;-82
2021/05/03 08:29:06;;;;;;;19.10;14.05;;;10.20;85.20;;;;;;5035956;28;20017;-82
2021/05/03 08:31:32;;;;;;;18.30;13.95;;;10.30;83.40;;;;;;5053967;28;20032;-82
2021/05/03 08:33:58;;;;;;;21.52;14.48;;;10.40;83.60;;;;;;5036132;28;20032;-82
2021/05/03 08:36:24;;;;;;;18.58;13.40;;;10.40;82.50;;;;;;5035890;28;20021;-85
2021/05/03 08:38:50;;;;;;;18.88;13.48;;;10.50;81.00;;;;;;5036408;28;20455;-83
2021/05/03 08:41:16;;;;;;;16.77;13.40;;;10.60;81.00;;;;;;5036278;28;20021;-83
2021/05/03 08:43:46;;;;;;;18.73;14.00;;;10.70;82.20;;;;;;5035967;28;20017;-83
2021/05/03 08:46:15;;;;;;;16.63;13.18;;;10.80;81.20;;;;;;5040365;28;20025;-84
2021/05/03 08:54:41;;;;;;;17.30;13.05;;;11.00;78.70;;;;;;5053751;28;20102;-86
2021/05/03 08:57:09;;;;;;;17.83;13.57;;;11.00;78.60;;;;;;5034694;28;20021;-85
2021/05/03 08:59:36;;;;;;;18.38;13.32;;;11.10;78.90;;;;;;5050595;28;20124;-84
2021/05/03 09:02:04;;;;;;;15.48;12.38;;;11.30;79.70;;;;;;5035741;28;20122;-83
2021/05/03 09:04:30;;;;;;;17.05;13.35;;;11.40;78.80;;;;;;5035300;28;20025;-84
2021/05/03 09:07:05;;;;;;;15.82;13.45;;;11.50;78.60;;;;;;5052660;28;20017;-81
2021/05/03 09:09:42;;;;;;;17.63;12.90;;;11.60;77.60;;;;;;5034823;28;20025;-80
2021/05/03 09:12:13;;;;;;;15.32;12.65;;;11.70;78.30;;;;;;5032984;28;20036;-80
2021/05/03 09:15:02;;;;;;;14.35;12.18;;;11.80;76.70;;;;;;5034834;28;20024;-80
2021/05/03 09:17:33;;;;;;;17.80;12.85;;;11.90;76.00;;;;;;5031965;28;20025;-80
2021/05/03 09:20:14;;;;;;;14.05;12.52;;;11.90;75.80;;;;;;5034511;28;20120;-81
2021/05/03 09:22:46;;;;;;;15.50;12.52;;;12.00;77.30;;;;;;5049820;28;20079;-81
2021/05/03 09:25:19;;;;;;;14.02;11.75;;;12.20;76.10;;;;;;5071472;28;20387;-81
2021/05/03 09:27:46;;;;;;;14.15;12.13;;;12.40;75.20;;;;;;5070051;28;20058;-81
2021/05/03 09:30:30;;;;;;;13.20;11.13;;;12.50;76.70;;;;;;5071034;28;20025;-81
2021/05/03 09:33:10;;;;;;;14.15;11.57;;;12.70;75.70;;;;;;5070560;28;20031;-82
2021/05/03 09:36:10;;;;;;;12.93;11.27;;;12.80;72.40;;;;;;5070625;28;20024;-82
2021/05/03 09:38:41;;;;;;;15.85;11.38;;;12.80;70.90;;;;;;5027181;28;20075;-81
2021/05/03 09:41:12;;;;;;;13.70;11.38;;;12.80;71.00;;;;;;5070535;28;20025;-81
2021/05/03 09:43:52;;;;;;;13.27;10.65;;;13.00;70.60;;;;;;5068300;28;20024;-80
2021/05/03 09:46:37;;;;;;;;;;;13.10;68.40;;;;;;5071767;28;20103;-80
2021/05/03 09:49:08;;;;;;;11.90;9.50;;;13.20;69.60;;;;;;5087548;28;19958;-81
2021/05/03 09:51:47;;;;;;;15.05;10.35;;;13.50;68.80;;;;;;5072394;28;20100;-80
2021/05/03 09:54:15;;;;;;;12.90;9.18;;;14.50;64.10;;;;;;5069399;28;20119;-81
2021/05/03 09:56:53;;;;;;;13.80;9.45;;;15.20;61.10;;;;;;5070892;28;20048;-82
2021/05/03 09:59:29;;;;;;;13.00;9.98;;;15.60;58.30;;;;;;5071799;28;20028;-81
2021/05/03 10:02:08;;;;;;;11.50;10.30;;;15.50;56.80;;;;;;5070330;28;20020;-81
2021/05/03 10:04:35;;;;;;;12.18;10.38;;;15.30;56.50;;;;;;5069492;28;20452;-80
2021/05/03 10:07:01;;;;;;;12.88;10.35;;;15.20;57.50;;;;;;5067760;28;20377;-81
2021/05/03 10:09:29;;;;;;;12.98;10.98;;;15.30;55.90;;;;;;5055229;28;20029;-82
2021/05/03 10:11:54;;;;;;;11.25;9.57;;;15.00;56.20;;;;;;5062915;28;20044;-80
2021/05/03 10:14:21;;;;;;;12.52;10.77;;;15.00;58.10;;;;;;5064975;28;20473;-81
2021/05/03 10:16:47;;;;;;;14.05;10.90;;;15.50;57.50;;;;;;5064792;28;20074;-81
2021/05/03 10:19:17;;;;;;;15.30;11.10;;;15.60;55.80;;;;;;5067824;28;20019;-81
2021/05/03 10:21:43;;;;;;;10.55;9.43;;;15.60;56.20;;;;;;5073710;28;20016;-81
2021/05/03 10:24:10;;;;;;;17.85;10.38;;;15.80;55.80;;;;;;5038381;28;20037;-80
2021/05/03 10:26:35;;;;;;;11.88;9.35;;;16.30;52.60;;;;;;5038505;28;20083;-80
2021/05/03 10:29:02;;;;;;;12.70;9.90;;;16.60;53.90;;;;;;5038273;28;20029;-81
2021/05/03 10:31:28;;;;;;;14.48;9.73;;;16.50;53.20;;;;;;5038242;28;20500;-81
2021/05/03 10:33:53;;;;;;;13.32;9.60;;;16.30;52.90;;;;;;5038373;28;20032;-81
2021/05/03 10:36:33;;;;;;;14.57;9.68;;;16.00;52.40;;;;;;5056252;28;20025;-82
2021/05/03 10:38:59;;;;;;;11.18;9.95;;;16.00;54.70;;;;;;5038340;28;20025;-80
2021/05/03 10:41:33;;;;;;;12.05;10.00;;;15.60;53.00;;;;;;5038058;28;20388;-81
2021/05/03 10:44:12;;;;;;;11.88;9.60;;;15.10;53.20;;;;;;5037737;28;20020;-81
2021/05/03 10:49:19;;;;;;;11.40;9.10;;;14.60;55.40;;;;;;5055905;28;20044;-82
2021/05/03 10:51:56;;;;;;;11.25;8.68;;;14.60;56.50;;;;;;5070128;28;20013;-81
2021/05/03 10:54:45;;;;;;;9.55;8.05;;;15.10;54.20;;;;;;5054894;28;20147;-81
2021/05/03 10:57:09;;;;;;;9.85;8.75;;;15.50;54.10;;;;;;5071993;28;20044;-82
2021/05/03 10:59:53;;;;;;;11.23;9.07;;;15.50;53.90;;;;;;5051393;28;20435;-82
2021/05/03 11:02:20;;;;;;;9.15;8.23;;;15.70;52.50;;;;;;5070791;28;20513;-82
2021/05/03 11:05:13;;;;;;;12.02;8.23;;;16.60;51.00;;;;;;5071067;28;20391;-81
2021/05/03 11:08:04;;;;;;;9.55;8.30;;;16.40;50.10;;;;;;5052863;28;20486;-80
2021/05/03 11:11:02;;;;;;;9.63;8.02;;;15.50;50.20;;;;;;5054205;28;20028;-81
2021/05/03 11:13:37;;;;;;;9.25;8.13;;;15.80;51.90;;;;;;5051515;28;20349;-82
2021/05/03 11:16:31;;;;;;;9.63;8.55;;;16.00;50.00;;;;;;5050141;28;20520;-81
2021/05/03 11:19:54;;;;;;;10.35;9.00;;;15.70;49.60;;;;;;5070554;28;20024;-81
2021/05/03 11:22:17;;;;;;;12.25;9.73;;;15.30;50.50;;;;;;5069033;28;20385;-81
2021/05/03 11:24:52;;;;;;;10.60;9.20;;;15.10;50.10;;;;;;5054302;28;20020;-81
2021/05/03 11:29:49;;;;;;;10.68;9.05;;;14.60;51.90;;;;;;5054695;28;20052;-81
2021/05/03 11:32:15;;;;;;;10.50;8.57;;;14.70;52.00;;;;;;5029623;28;20540;-82
2021/05/03 11:37:32;;;;;;;11.05;9.68;;;15.50;51.00;;;;;;5070462;28;20417;-82
2021/05/03 11:40:12;;;;;;;10.43;9.32;;;15.20;49.90;;;;;;5043834;28;20059;-80
2021/05/03 11:45:30;;;;;;;11.02;9.07;;;14.50;51.10;;;;;;5018843;28;19905;-80
2021/05/03 11:47:58;;;;;;;13.52;9.13;;;14.20;51.50;;;;;;5050076;28;20020;-81
2021/05/03 11:50:26;;;;;;;10.95;9.70;;;14.20;52.70;;;;;;5070193;28;20517;-81
2021/05/03 11:52:52;;;;;;;10.35;9.32;;;14.20;53.00;;;;;;5044612;28;20027;-80
2021/05/03 11:55:24;;;;;;;11.57;10.40;;;14.30;52.80;;;;;;5043140;28;20021;-81
2021/05/03 11:57:51;;;;;;;10.20;9.02;;;14.50;50.40;;;;;;5054273;28;20115;-81
2021/05/03 12:00:19;;;;;;;9.98;8.77;;;14.50;52.40;;;;;;5054300;28;20464;-82
2021/05/03 12:02:46;;;;;;;10.70;8.48;;;14.40;52.10;;;;;;5049511;28;20393;-80
2021/05/03 12:05:14;;;;;;;11.07;8.93;;;14.40;51.90;;;;;;5070876;28;20028;-81
2021/05/03 12:07:40;;;;;;;11.63;8.93;;;14.50;53.90;;;;;;5058148;28;20021;-80
2021/05/03 12:10:10;;;;;;;9.73;8.73;;;14.70;52.30;;;;;;5053381;28;20021;-81
2021/05/03 12:12:47;;;;;;;9.77;8.07;;;14.80;51.80;;;;;;5069566;28;20360;-81
2021/05/03 12:15:17;;;;;;;10.82;7.60;;;14.80;51.10;;;;;;5071908;28;20463;-82
2021/05/03 12:17:42;;;;;;;;;;;14.60;52.50;;;;;;5052506;28;20021;-81
2021/05/03 12:20:10;;;;;;;11.82;8.80;;;14.30;51.50;;;;;;5055444;28;19924;-82
2021/05/03 12:22:37;;;;;;;11.95;8.30;;;14.20;51.70;;;;;;5065819;28;20036;-81
2021/05/03 12:25:10;;;;;;;8.85;7.32;;;14.20;51.70;;;;;;5088321;28;20027;-82
2021/05/03 12:27:37;;;;;;;10.85;7.72;;;14.60;52.00;;;;;;5085376;28;20058;-80
2021/05/03 12:30:05;;;;;;;9.65;7.55;;;15.20;49.70;;;;;;5084959;28;20032;-82
2021/05/03 12:32:33;;;;;;;8.23;6.82;;;15.20;48.20;;;;;;5073617;28;20024;-82
2021/05/03 12:35:09;;;;;;;9.38;7.25;;;15.10;49.40;;;;;;5089482;28;20440;-82
2021/05/03 12:37:34;;;;;;;8.82;7.00;;;15.00;51.30;;;;;;5059753;28;20431;-82
2021/05/03 12:40:14;;;;;;;8.70;7.25;;;15.00;50.00;;;;;;5083756;28;20046;-82
2021/05/03 12:42:51;;;;;;;7.80;6.20;;;15.10;48.90;;;;;;5089139;28;20024;-82
2021/05/03 12:45:20;;;;;;;7.30;6.07;;;15.50;49.30;;;;;;5087121;28;20395;-82
2021/05/03 12:51:39;;;;;;;8.63;7.57;;;15.50;48.20;;;;;;5085537;28;20433;-81
2021/05/03 12:53:41;;;;;;;10.27;7.35;;;15.10;48.20;;;;;;5051248;28;20026;-81
2021/05/03 12:58:43;;;;;;;8.18;6.15;;;14.90;50.50;;;;;;5065753;28;20024;-80
2021/05/03 13:01:35;;;;;;;9.73;5.80;;;15.20;49.20;;;;;;5027995;28;20369;-80
2021/05/03 13:29:06;;;;;;;9.23;6.35;;;15.10;46.30;;;;;;5056036;28;20025;-80
2021/05/03 13:31:33;;;;;;;7.95;5.60;;;15.10;47.50;;;;;;5069588;28;20433;-81
2021/05/03 13:33:59;;;;;;;10.82;6.00;;;15.00;48.10;;;;;;5047541;28;20020;-81
2021/05/03 13:36:27;;;;;;;7.22;5.97;;;15.10;47.20;;;;;;5047697;28;20027;-81
2021/05/03 13:38:53;;;;;;;6.93;6.07;;;15.30;47.90;;;;;;5043611;28;20027;-80
2021/05/03 13:41:19;;;;;;;8.68;6.82;;;15.40;46.60;;;;;;5050381;28;20025;-81
2021/05/03 13:43:44;;;;;;;9.93;5.75;;;15.40;46.40;;;;;;5050996;28;20110;-81
2021/05/03 13:46:10;;;;;;;8.25;4.85;;;15.30;46.10;;;;;;5051149;28;20472;-82
2021/05/03 13:48:36;;;;;;;8.38;5.85;;;15.30;46.60;;;;;;5069996;28;20169;-79
2021/05/03 13:51:03;;;;;;;7.97;5.50;;;15.30;46.30;;;;;;5070471;28;20027;-80
2021/05/03 13:53:28;;;;;;;8.75;6.65;;;15.40;46.60;;;;;;5065534;28;20017;-80